Ambulong, Philippines
Current Conditions -  °F | °C
As of 11:00 PM on Friday 24 Oct 2014 (Local Time) from RPLL Reporting Station
Few Clouds Few Clouds  
Wind Chill: 77°   Ceiling: Unl
Heat Index: 78°   Visibility: 6mi
Dew Point: 73°   Wind: 3mph
Humidity: 89%   Direction: 70°ENE
Pressure: 29.91"   Gusts: NA
Location:  14.09°N, 121.06°E
Report Text: RPLL 241500Z 07003KT 9999 FEW025 25/23 Q1013 NOSIG RMK A2991
Loading
Personal Weather Stations






























Interactive Weather Map
Tropical Storm Tracking
New forecast layout! Learn more

10-Day Weather Forecast

Advertisements
Track Severe Weather on mobile